sensor_id;sensor_type;location;lat;lon;timestamp;P1;durP1;ratioP1;P2;durP2;ratioP2
23258;SDS011;11798;51.528;7.240;2023-01-29T00:01:58;77.00;;;39.17;;
23258;SDS011;11798;51.528;7.240;2023-01-29T00:04:24;76.73;;;37.20;;
23258;SDS011;11798;51.528;7.240;2023-01-29T00:06:50;78.77;;;37.87;;
23258;SDS011;11798;51.528;7.240;2023-01-29T00:09:16;89.60;;;40.60;;
23258;SDS011;11798;51.528;7.240;2023-01-29T00:11:42;80.77;;;37.70;;
23258;SDS011;11798;51.528;7.240;2023-01-29T00:14:07;84.67;;;39.63;;
23258;SDS011;11798;51.528;7.240;2023-01-29T00:16:33;89.67;;;41.53;;
23258;SDS011;11798;51.528;7.240;2023-01-29T00:18:59;82.30;;;40.10;;
23258;SDS011;11798;51.528;7.240;2023-01-29T00:21:26;90.33;;;41.73;;
23258;SDS011;11798;51.528;7.240;2023-01-29T00:23:52;85.93;;;40.23;;
23258;SDS011;11798;51.528;7.240;2023-01-29T00:26:19;82.40;;;40.17;;
23258;SDS011;11798;51.528;7.240;2023-01-29T00:28:45;86.93;;;40.27;;
23258;SDS011;11798;51.528;7.240;2023-01-29T00:31:14;83.57;;;41.43;;
23258;SDS011;11798;51.528;7.240;2023-01-29T00:33:42;86.33;;;41.40;;
23258;SDS011;11798;51.528;7.240;2023-01-29T00:36:09;92.40;;;41.10;;
23258;SDS011;11798;51.528;7.240;2023-01-29T00:38:36;88.83;;;40.13;;
23258;SDS011;11798;51.528;7.240;2023-01-29T00:43:53;83.87;;;39.87;;
23258;SDS011;11798;51.528;7.240;2023-01-29T00:46:37;81.57;;;38.27;;
23258;SDS011;11798;51.528;7.240;2023-01-29T00:49:03;80.00;;;38.70;;
23258;SDS011;11798;51.528;7.240;2023-01-29T00:51:29;82.03;;;38.10;;
23258;SDS011;11798;51.528;7.240;2023-01-29T00:53:55;78.70;;;37.77;;
23258;SDS011;11798;51.528;7.240;2023-01-29T00:56:25;83.10;;;39.13;;
23258;SDS011;11798;51.528;7.240;2023-01-29T00:58:52;84.70;;;38.63;;
23258;SDS011;11798;51.528;7.240;2023-01-29T01:01:18;77.60;;;37.97;;
23258;SDS011;11798;51.528;7.240;2023-01-29T01:04:04;72.40;;;36.23;;
23258;SDS011;11798;51.528;7.240;2023-01-29T01:06:30;78.07;;;35.53;;
23258;SDS011;11798;51.528;7.240;2023-01-29T01:08:55;82.80;;;38.27;;
23258;SDS011;11798;51.528;7.240;2023-01-29T01:11:39;74.97;;;35.57;;
23258;SDS011;11798;51.528;7.240;2023-01-29T01:14:05;81.57;;;37.10;;
23258;SDS011;11798;51.528;7.240;2023-01-29T01:16:31;79.77;;;38.70;;
23258;SDS011;11798;51.528;7.240;2023-01-29T01:18:56;76.83;;;36.63;;
23258;SDS011;11798;51.528;7.240;2023-01-29T01:21:22;80.03;;;37.87;;
23258;SDS011;11798;51.528;7.240;2023-01-29T01:23:47;81.53;;;36.97;;
23258;SDS011;11798;51.528;7.240;2023-01-29T01:26:15;79.30;;;37.73;;
23258;SDS011;11798;51.528;7.240;2023-01-29T01:28:41;84.97;;;39.27;;
23258;SDS011;11798;51.528;7.240;2023-01-29T01:31:12;87.30;;;39.47;;
23258;SDS011;11798;51.528;7.240;2023-01-29T01:33:38;86.00;;;39.07;;
23258;SDS011;11798;51.528;7.240;2023-01-29T01:36:05;80.17;;;37.83;;
23258;SDS011;11798;51.528;7.240;2023-01-29T01:38:37;82.60;;;39.80;;
23258;SDS011;11798;51.528;7.240;2023-01-29T01:41:09;81.97;;;39.23;;
23258;SDS011;11798;51.528;7.240;2023-01-29T01:46:16;88.23;;;38.40;;
23258;SDS011;11798;51.528;7.240;2023-01-29T01:48:42;90.20;;;39.97;;
23258;SDS011;11798;51.528;7.240;2023-01-29T01:51:10;82.80;;;37.00;;
23258;SDS011;11798;51.528;7.240;2023-01-29T01:53:37;77.87;;;37.90;;
23258;SDS011;11798;51.528;7.240;2023-01-29T01:56:12;90.37;;;40.40;;
23258;SDS011;11798;51.528;7.240;2023-01-29T01:58:46;84.13;;;36.97;;
23258;SDS011;11798;51.528;7.240;2023-01-29T02:01:15;79.43;;;38.03;;
23258;SDS011;11798;51.528;7.240;2023-01-29T02:03:44;79.87;;;37.10;;
23258;SDS011;11798;51.528;7.240;2023-01-29T02:06:32;80.90;;;36.57;;
23258;SDS011;11798;51.528;7.240;2023-01-29T02:09:22;89.10;;;38.67;;
23258;SDS011;11798;51.528;7.240;2023-01-29T02:12:04;84.93;;;38.83;;
23258;SDS011;11798;51.528;7.240;2023-01-29T02:14:38;90.47;;;40.20;;
23258;SDS011;11798;51.528;7.240;2023-01-29T02:17:08;86.97;;;38.20;;
23258;SDS011;11798;51.528;7.240;2023-01-29T02:19:44;88.27;;;38.80;;
23258;SDS011;11798;51.528;7.240;2023-01-29T02:25:22;84.27;;;37.20;;
23258;SDS011;11798;51.528;7.240;2023-01-29T02:28:15;96.80;;;42.37;;
23258;SDS011;11798;51.528;7.240;2023-01-29T02:37:02;95.10;;;42.30;;
23258;SDS011;11798;51.528;7.240;2023-01-29T02:39:56;95.53;;;44.07;;
23258;SDS011;11798;51.528;7.240;2023-01-29T02:42:37;103.83;;;44.40;;
23258;SDS011;11798;51.528;7.240;2023-01-29T02:45:17;92.07;;;43.00;;
23258;SDS011;11798;51.528;7.240;2023-01-29T02:47:59;94.43;;;42.03;;
23258;SDS011;11798;51.528;7.240;2023-01-29T02:53:11;102.00;;;43.73;;
23258;SDS011;11798;51.528;7.240;2023-01-29T02:55:43;99.70;;;44.40;;
23258;SDS011;11798;51.528;7.240;2023-01-29T03:00:49;109.83;;;45.77;;
23258;SDS011;11798;51.528;7.240;2023-01-29T03:03:26;97.83;;;43.00;;
23258;SDS011;11798;51.528;7.240;2023-01-29T03:06:01;103.27;;;43.67;;
23258;SDS011;11798;51.528;7.240;2023-01-29T03:08:45;98.63;;;43.23;;
23258;SDS011;11798;51.528;7.240;2023-01-29T03:11:16;99.37;;;44.03;;
23258;SDS011;11798;51.528;7.240;2023-01-29T03:16:51;93.70;;;40.40;;
23258;SDS011;11798;51.528;7.240;2023-01-29T03:21:51;94.47;;;42.67;;
23258;SDS011;11798;51.528;7.240;2023-01-29T03:27:32;93.43;;;40.73;;
23258;SDS011;11798;51.528;7.240;2023-01-29T03:30:21;88.57;;;39.30;;
23258;SDS011;11798;51.528;7.240;2023-01-29T03:33:09;96.70;;;41.73;;
23258;SDS011;11798;51.528;7.240;2023-01-29T03:35:37;92.50;;;41.67;;
23258;SDS011;11798;51.528;7.240;2023-01-29T03:38:11;98.07;;;42.70;;
23258;SDS011;11798;51.528;7.240;2023-01-29T03:40:54;95.03;;;43.03;;
23258;SDS011;11798;51.528;7.240;2023-01-29T03:48:39;94.93;;;42.77;;
23258;SDS011;11798;51.528;7.240;2023-01-29T03:54:02;94.73;;;42.73;;
23258;SDS011;11798;51.528;7.240;2023-01-29T04:01:53;88.20;;;40.90;;
23258;SDS011;11798;51.528;7.240;2023-01-29T04:04:32;87.10;;;41.80;;
23258;SDS011;11798;51.528;7.240;2023-01-29T04:07:10;97.00;;;42.70;;
23258;SDS011;11798;51.528;7.240;2023-01-29T04:09:44;93.00;;;41.87;;
23258;SDS011;11798;51.528;7.240;2023-01-29T04:12:14;94.33;;;41.93;;
23258;SDS011;11798;51.528;7.240;2023-01-29T04:14:44;93.70;;;42.83;;
23258;SDS011;11798;51.528;7.240;2023-01-29T04:17:35;89.47;;;42.10;;
23258;SDS011;11798;51.528;7.240;2023-01-29T04:20:01;85.57;;;41.70;;
23258;SDS011;11798;51.528;7.240;2023-01-29T04:22:31;96.20;;;43.40;;
23258;SDS011;11798;51.528;7.240;2023-01-29T04:24:59;92.97;;;42.40;;
23258;SDS011;11798;51.528;7.240;2023-01-29T04:27:51;84.60;;;38.87;;
23258;SDS011;11798;51.528;7.240;2023-01-29T04:30:45;91.17;;;41.93;;
23258;SDS011;11798;51.528;7.240;2023-01-29T04:33:43;84.97;;;39.73;;
23258;SDS011;11798;51.528;7.240;2023-01-29T04:44:48;83.23;;;39.00;;
23258;SDS011;11798;51.528;7.240;2023-01-29T04:47:34;85.93;;;39.00;;
23258;SDS011;11798;51.528;7.240;2023-01-29T04:55:13;85.50;;;40.33;;
23258;SDS011;11798;51.528;7.240;2023-01-29T04:58:13;92.40;;;41.47;;
23258;SDS011;11798;51.528;7.240;2023-01-29T05:00:47;80.60;;;37.23;;
23258;SDS011;11798;51.528;7.240;2023-01-29T05:03:17;84.57;;;39.20;;
23258;SDS011;11798;51.528;7.240;2023-01-29T05:05:45;80.03;;;39.77;;
23258;SDS011;11798;51.528;7.240;2023-01-29T05:08:13;80.27;;;37.87;;
23258;SDS011;11798;51.528;7.240;2023-01-29T05:10:41;85.50;;;38.20;;
23258;SDS011;11798;51.528;7.240;2023-01-29T05:13:09;80.00;;;38.57;;
23258;SDS011;11798;51.528;7.240;2023-01-29T05:15:38;73.60;;;34.77;;
23258;SDS011;11798;51.528;7.240;2023-01-29T05:18:05;79.40;;;38.13;;
23258;SDS011;11798;51.528;7.240;2023-01-29T05:20:33;78.23;;;36.97;;
23258;SDS011;11798;51.528;7.240;2023-01-29T05:23:01;74.47;;;35.23;;
23258;SDS011;11798;51.528;7.240;2023-01-29T05:25:28;74.13;;;34.50;;
23258;SDS011;11798;51.528;7.240;2023-01-29T05:27:56;69.37;;;34.37;;
23258;SDS011;11798;51.528;7.240;2023-01-29T05:30:28;77.37;;;35.17;;
23258;SDS011;11798;51.528;7.240;2023-01-29T05:32:54;68.37;;;33.27;;
23258;SDS011;11798;51.528;7.240;2023-01-29T05:35:19;71.03;;;32.50;;
23258;SDS011;11798;51.528;7.240;2023-01-29T05:37:45;71.73;;;32.80;;
23258;SDS011;11798;51.528;7.240;2023-01-29T05:40:11;72.37;;;34.37;;
23258;SDS011;11798;51.528;7.240;2023-01-29T05:42:36;69.40;;;33.70;;
23258;SDS011;11798;51.528;7.240;2023-01-29T05:45:02;68.73;;;33.27;;
23258;SDS011;11798;51.528;7.240;2023-01-29T05:47:28;71.23;;;34.23;;
23258;SDS011;11798;51.528;7.240;2023-01-29T05:49:54;66.20;;;32.27;;
23258;SDS011;11798;51.528;7.240;2023-01-29T05:52:19;70.87;;;34.33;;
23258;SDS011;11798;51.528;7.240;2023-01-29T05:54:45;66.63;;;32.40;;
23258;SDS011;11798;51.528;7.240;2023-01-29T05:57:10;72.70;;;33.13;;
23258;SDS011;11798;51.528;7.240;2023-01-29T05:59:36;71.63;;;34.50;;
23258;SDS011;11798;51.528;7.240;2023-01-29T06:02:01;69.23;;;34.27;;
23258;SDS011;11798;51.528;7.240;2023-01-29T06:04:27;67.03;;;33.13;;
23258;SDS011;11798;51.528;7.240;2023-01-29T06:06:53;65.00;;;31.80;;
23258;SDS011;11798;51.528;7.240;2023-01-29T06:09:18;72.50;;;33.40;;
23258;SDS011;11798;51.528;7.240;2023-01-29T06:11:44;68.47;;;32.20;;
23258;SDS011;11798;51.528;7.240;2023-01-29T06:14:09;66.27;;;32.83;;
23258;SDS011;11798;51.528;7.240;2023-01-29T06:16:35;75.53;;;34.27;;
23258;SDS011;11798;51.528;7.240;2023-01-29T06:19:00;70.90;;;35.50;;
23258;SDS011;11798;51.528;7.240;2023-01-29T06:21:26;75.47;;;34.63;;
23258;SDS011;11798;51.528;7.240;2023-01-29T06:23:52;67.93;;;32.93;;
23258;SDS011;11798;51.528;7.240;2023-01-29T06:26:18;72.50;;;34.30;;
23258;SDS011;11798;51.528;7.240;2023-01-29T06:28:43;75.23;;;34.80;;
23258;SDS011;11798;51.528;7.240;2023-01-29T06:31:12;70.87;;;33.60;;
23258;SDS011;11798;51.528;7.240;2023-01-29T06:33:37;71.87;;;33.50;;
23258;SDS011;11798;51.528;7.240;2023-01-29T06:36:03;70.67;;;34.17;;
23258;SDS011;11798;51.528;7.240;2023-01-29T06:38:29;72.67;;;33.60;;
23258;SDS011;11798;51.528;7.240;2023-01-29T06:40:55;66.90;;;32.47;;
23258;SDS011;11798;51.528;7.240;2023-01-29T06:43:21;70.50;;;33.30;;
23258;SDS011;11798;51.528;7.240;2023-01-29T06:45:55;61.50;;;31.50;;
23258;SDS011;11798;51.528;7.240;2023-01-29T06:48:22;67.63;;;31.87;;
23258;SDS011;11798;51.528;7.240;2023-01-29T06:50:48;68.63;;;33.80;;
23258;SDS011;11798;51.528;7.240;2023-01-29T06:53:14;67.17;;;32.10;;
23258;SDS011;11798;51.528;7.240;2023-01-29T06:55:41;65.13;;;32.10;;
23258;SDS011;11798;51.528;7.240;2023-01-29T06:58:07;66.77;;;32.40;;
23258;SDS011;11798;51.528;7.240;2023-01-29T07:00:34;69.43;;;34.20;;
23258;SDS011;11798;51.528;7.240;2023-01-29T07:03:00;69.10;;;33.50;;
23258;SDS011;11798;51.528;7.240;2023-01-29T07:05:26;75.90;;;34.50;;
23258;SDS011;11798;51.528;7.240;2023-01-29T07:07:52;66.33;;;32.03;;
23258;SDS011;11798;51.528;7.240;2023-01-29T07:10:18;68.83;;;33.00;;
23258;SDS011;11798;51.528;7.240;2023-01-29T07:12:43;59.83;;;29.97;;
23258;SDS011;11798;51.528;7.240;2023-01-29T07:15:09;63.87;;;32.00;;
23258;SDS011;11798;51.528;7.240;2023-01-29T07:17:36;66.77;;;31.33;;
23258;SDS011;11798;51.528;7.240;2023-01-29T07:20:02;61.60;;;30.63;;
23258;SDS011;11798;51.528;7.240;2023-01-29T07:22:29;61.73;;;29.47;;
23258;SDS011;11798;51.528;7.240;2023-01-29T07:24:55;61.27;;;31.23;;
23258;SDS011;11798;51.528;7.240;2023-01-29T07:27:21;63.23;;;28.60;;
23258;SDS011;11798;51.528;7.240;2023-01-29T07:29:46;61.73;;;30.53;;
23258;SDS011;11798;51.528;7.240;2023-01-29T07:32:12;60.47;;;29.70;;
23258;SDS011;11798;51.528;7.240;2023-01-29T07:34:37;61.80;;;30.47;;
23258;SDS011;11798;51.528;7.240;2023-01-29T07:37:03;61.93;;;29.83;;
23258;SDS011;11798;51.528;7.240;2023-01-29T07:39:30;62.77;;;30.90;;
23258;SDS011;11798;51.528;7.240;2023-01-29T07:41:56;58.53;;;29.07;;
23258;SDS011;11798;51.528;7.240;2023-01-29T07:44:21;61.17;;;29.63;;
23258;SDS011;11798;51.528;7.240;2023-01-29T07:46:47;61.80;;;31.63;;
23258;SDS011;11798;51.528;7.240;2023-01-29T07:49:13;62.50;;;30.60;;
23258;SDS011;11798;51.528;7.240;2023-01-29T07:51:39;61.37;;;31.00;;
23258;SDS011;11798;51.528;7.240;2023-01-29T07:54:05;62.97;;;31.67;;
23258;SDS011;11798;51.528;7.240;2023-01-29T07:56:30;63.73;;;32.27;;
23258;SDS011;11798;51.528;7.240;2023-01-29T07:58:56;65.17;;;31.80;;
23258;SDS011;11798;51.528;7.240;2023-01-29T08:01:21;61.47;;;29.73;;
23258;SDS011;11798;51.528;7.240;2023-01-29T08:03:47;61.53;;;31.63;;
23258;SDS011;11798;51.528;7.240;2023-01-29T08:06:13;63.47;;;31.50;;
23258;SDS011;11798;51.528;7.240;2023-01-29T08:08:39;65.93;;;31.83;;
23258;SDS011;11798;51.528;7.240;2023-01-29T08:11:04;65.83;;;31.37;;
23258;SDS011;11798;51.528;7.240;2023-01-29T08:13:30;63.20;;;31.67;;
23258;SDS011;11798;51.528;7.240;2023-01-29T08:16:00;63.83;;;32.10;;
23258;SDS011;11798;51.528;7.240;2023-01-29T08:18:27;65.70;;;34.10;;
23258;SDS011;11798;51.528;7.240;2023-01-29T08:20:57;66.20;;;32.60;;
23258;SDS011;11798;51.528;7.240;2023-01-29T08:23:24;64.67;;;31.93;;
23258;SDS011;11798;51.528;7.240;2023-01-29T08:25:50;67.57;;;33.67;;
23258;SDS011;11798;51.528;7.240;2023-01-29T08:28:15;63.70;;;32.03;;
23258;SDS011;11798;51.528;7.240;2023-01-29T08:30:41;66.57;;;33.40;;
23258;SDS011;11798;51.528;7.240;2023-01-29T08:33:08;66.27;;;32.93;;
23258;SDS011;11798;51.528;7.240;2023-01-29T08:35:34;67.40;;;32.57;;
23258;SDS011;11798;51.528;7.240;2023-01-29T08:38:00;64.00;;;31.30;;
23258;SDS011;11798;51.528;7.240;2023-01-29T08:40:28;68.07;;;32.87;;
23258;SDS011;11798;51.528;7.240;2023-01-29T08:42:59;70.13;;;32.87;;
23258;SDS011;11798;51.528;7.240;2023-01-29T08:45:29;69.77;;;33.20;;
23258;SDS011;11798;51.528;7.240;2023-01-29T08:47:57;66.57;;;32.00;;
23258;SDS011;11798;51.528;7.240;2023-01-29T08:50:22;70.70;;;33.53;;
23258;SDS011;11798;51.528;7.240;2023-01-29T08:52:48;74.53;;;33.97;;
23258;SDS011;11798;51.528;7.240;2023-01-29T08:55:14;68.40;;;33.90;;
23258;SDS011;11798;51.528;7.240;2023-01-29T08:57:39;66.07;;;33.70;;
23258;SDS011;11798;51.528;7.240;2023-01-29T09:00:06;73.63;;;36.27;;
23258;SDS011;11798;51.528;7.240;2023-01-29T09:02:35;70.63;;;33.73;;
23258;SDS011;11798;51.528;7.240;2023-01-29T09:05:01;69.87;;;34.70;;
23258;SDS011;11798;51.528;7.240;2023-01-29T09:07:28;64.63;;;34.10;;
23258;SDS011;11798;51.528;7.240;2023-01-29T09:09:53;69.33;;;36.10;;
23258;SDS011;11798;51.528;7.240;2023-01-29T09:12:19;64.63;;;33.37;;
23258;SDS011;11798;51.528;7.240;2023-01-29T09:14:45;67.30;;;33.17;;
23258;SDS011;11798;51.528;7.240;2023-01-29T09:17:10;67.67;;;34.17;;
23258;SDS011;11798;51.528;7.240;2023-01-29T09:19:36;69.53;;;33.40;;
23258;SDS011;11798;51.528;7.240;2023-01-29T09:22:01;66.97;;;33.63;;
23258;SDS011;11798;51.528;7.240;2023-01-29T09:24:27;67.80;;;31.77;;
23258;SDS011;11798;51.528;7.240;2023-01-29T09:26:53;73.33;;;36.10;;
23258;SDS011;11798;51.528;7.240;2023-01-29T09:29:19;69.03;;;35.03;;
23258;SDS011;11798;51.528;7.240;2023-01-29T09:31:45;70.07;;;34.67;;
23258;SDS011;11798;51.528;7.240;2023-01-29T09:34:10;71.70;;;33.87;;
23258;SDS011;11798;51.528;7.240;2023-01-29T09:36:36;71.67;;;34.77;;
23258;SDS011;11798;51.528;7.240;2023-01-29T09:39:01;69.50;;;33.60;;
23258;SDS011;11798;51.528;7.240;2023-01-29T09:43:58;66.87;;;32.83;;
23258;SDS011;11798;51.528;7.240;2023-01-29T09:46:29;67.43;;;33.10;;
23258;SDS011;11798;51.528;7.240;2023-01-29T09:49:06;67.20;;;32.70;;
23258;SDS011;11798;51.528;7.240;2023-01-29T09:51:50;67.70;;;32.67;;
23258;SDS011;11798;51.528;7.240;2023-01-29T09:54:30;71.17;;;34.03;;
23258;SDS011;11798;51.528;7.240;2023-01-29T09:57:09;70.23;;;34.23;;
23258;SDS011;11798;51.528;7.240;2023-01-29T09:59:43;69.03;;;33.70;;
23258;SDS011;11798;51.528;7.240;2023-01-29T10:02:10;65.63;;;35.30;;
23258;SDS011;11798;51.528;7.240;2023-01-29T10:08:07;69.73;;;33.03;;
23258;SDS011;11798;51.528;7.240;2023-01-29T10:20:01;67.40;;;32.27;;
23258;SDS011;11798;51.528;7.240;2023-01-29T10:22:43;67.90;;;32.93;;
23258;SDS011;11798;51.528;7.240;2023-01-29T10:25:35;64.17;;;31.60;;
23258;SDS011;11798;51.528;7.240;2023-01-29T10:28:06;64.60;;;32.53;;
23258;SDS011;11798;51.528;7.240;2023-01-29T10:30:43;60.80;;;31.63;;
23258;SDS011;11798;51.528;7.240;2023-01-29T10:36:34;68.47;;;34.20;;
23258;SDS011;11798;51.528;7.240;2023-01-29T10:39:08;70.10;;;33.83;;
23258;SDS011;11798;51.528;7.240;2023-01-29T10:41:51;62.07;;;30.77;;
23258;SDS011;11798;51.528;7.240;2023-01-29T10:48:43;68.50;;;33.27;;
23258;SDS011;11798;51.528;7.240;2023-01-29T10:50:51;63.67;;;32.03;;
23258;SDS011;11798;51.528;7.240;2023-01-29T11:01:56;64.90;;;32.57;;
23258;SDS011;11798;51.528;7.240;2023-01-29T11:04:23;60.23;;;30.17;;
23258;SDS011;11798;51.528;7.240;2023-01-29T11:06:52;65.27;;;33.33;;
23258;SDS011;11798;51.528;7.240;2023-01-29T11:09:27;61.07;;;30.53;;
23258;SDS011;11798;51.528;7.240;2023-01-29T11:12:00;61.40;;;30.30;;
23258;SDS011;11798;51.528;7.240;2023-01-29T11:17:16;68.80;;;34.23;;
23258;SDS011;11798;51.528;7.240;2023-01-29T11:19:44;63.10;;;31.83;;
23258;SDS011;11798;51.528;7.240;2023-01-29T11:22:12;62.13;;;31.43;;
23258;SDS011;11798;51.528;7.240;2023-01-29T11:24:43;60.60;;;31.67;;
23258;SDS011;11798;51.528;7.240;2023-01-29T11:27:13;61.83;;;30.73;;
23258;SDS011;11798;51.528;7.240;2023-01-29T11:29:51;63.70;;;30.60;;
23258;SDS011;11798;51.528;7.240;2023-01-29T11:37:40;66.37;;;32.10;;
23258;SDS011;11798;51.528;7.240;2023-01-29T11:42:43;59.60;;;29.77;;
23258;SDS011;11798;51.528;7.240;2023-01-29T11:45:43;57.83;;;28.80;;
23258;SDS011;11798;51.528;7.240;2023-01-29T11:48:03;57.63;;;29.27;;
23258;SDS011;11798;51.528;7.240;2023-01-29T11:50:29;56.00;;;30.07;;
23258;SDS011;11798;51.528;7.240;2023-01-29T11:52:59;55.20;;;28.13;;
23258;SDS011;11798;51.528;7.240;2023-01-29T11:55:29;63.43;;;31.67;;
23258;SDS011;11798;51.528;7.240;2023-01-29T11:58:10;62.23;;;31.27;;
23258;SDS011;11798;51.528;7.240;2023-01-29T12:00:40;58.57;;;29.97;;
23258;SDS011;11798;51.528;7.240;2023-01-29T12:03:16;54.37;;;28.67;;
23258;SDS011;11798;51.528;7.240;2023-01-29T12:08:38;52.70;;;28.30;;
23258;SDS011;11798;51.528;7.240;2023-01-29T12:11:08;58.30;;;30.93;;
23258;SDS011;11798;51.528;7.240;2023-01-29T12:13:56;56.67;;;28.33;;
23258;SDS011;11798;51.528;7.240;2023-01-29T12:18:53;57.53;;;28.70;;
23258;SDS011;11798;51.528;7.240;2023-01-29T12:21:21;56.87;;;28.57;;
23258;SDS011;11798;51.528;7.240;2023-01-29T12:23:54;55.27;;;28.33;;
23258;SDS011;11798;51.528;7.240;2023-01-29T12:26:35;57.60;;;27.60;;
23258;SDS011;11798;51.528;7.240;2023-01-29T12:29:26;52.37;;;28.07;;
23258;SDS011;11798;51.528;7.240;2023-01-29T12:32:24;55.77;;;28.17;;
23258;SDS011;11798;51.528;7.240;2023-01-29T12:40:22;52.77;;;28.47;;
23258;SDS011;11798;51.528;7.240;2023-01-29T12:43:18;53.00;;;28.10;;
23258;SDS011;11798;51.528;7.240;2023-01-29T12:45:51;56.87;;;29.07;;
23258;SDS011;11798;51.528;7.240;2023-01-29T12:48:23;55.87;;;29.17;;
23258;SDS011;11798;51.528;7.240;2023-01-29T12:51:07;54.03;;;27.13;;
23258;SDS011;11798;51.528;7.240;2023-01-29T12:56:11;50.13;;;27.07;;
23258;SDS011;11798;51.528;7.240;2023-01-29T12:58:46;51.60;;;27.03;;
23258;SDS011;11798;51.528;7.240;2023-01-29T13:01:15;53.30;;;26.23;;
23258;SDS011;11798;51.528;7.240;2023-01-29T13:06:16;54.50;;;27.27;;
23258;SDS011;11798;51.528;7.240;2023-01-29T13:09:07;55.80;;;29.47;;
23258;SDS011;11798;51.528;7.240;2023-01-29T13:14:07;48.20;;;27.03;;
23258;SDS011;11798;51.528;7.240;2023-01-29T13:16:54;48.17;;;26.70;;
23258;SDS011;11798;51.528;7.240;2023-01-29T13:19:33;44.90;;;25.20;;
23258;SDS011;11798;51.528;7.240;2023-01-29T13:22:02;49.43;;;25.87;;
23258;SDS011;11798;51.528;7.240;2023-01-29T13:24:40;54.07;;;26.53;;
23258;SDS011;11798;51.528;7.240;2023-01-29T13:27:11;50.70;;;27.57;;
23258;SDS011;11798;51.528;7.240;2023-01-29T13:29:44;49.47;;;25.87;;
23258;SDS011;11798;51.528;7.240;2023-01-29T13:32:10;46.73;;;25.37;;
23258;SDS011;11798;51.528;7.240;2023-01-29T13:34:43;46.97;;;25.20;;
23258;SDS011;11798;51.528;7.240;2023-01-29T13:37:23;46.87;;;24.73;;
23258;SDS011;11798;51.528;7.240;2023-01-29T13:39:57;45.27;;;24.43;;
23258;SDS011;11798;51.528;7.240;2023-01-29T13:45:20;44.83;;;24.03;;
23258;SDS011;11798;51.528;7.240;2023-01-29T13:47:48;47.90;;;24.13;;
23258;SDS011;11798;51.528;7.240;2023-01-29T13:50:20;47.83;;;24.83;;
23258;SDS011;11798;51.528;7.240;2023-01-29T13:52:53;44.83;;;23.20;;
23258;SDS011;11798;51.528;7.240;2023-01-29T13:55:27;41.67;;;21.57;;
23258;SDS011;11798;51.528;7.240;2023-01-29T13:58:01;45.93;;;24.47;;
23258;SDS011;11798;51.528;7.240;2023-01-29T14:07:53;48.83;;;26.33;;
23258;SDS011;11798;51.528;7.240;2023-01-29T14:10:21;51.87;;;25.87;;
23258;SDS011;11798;51.528;7.240;2023-01-29T14:15:32;46.57;;;24.23;;
23258;SDS011;11798;51.528;7.240;2023-01-29T14:18:18;45.27;;;24.73;;
23258;SDS011;11798;51.528;7.240;2023-01-29T14:23:21;47.53;;;24.47;;
23258;SDS011;11798;51.528;7.240;2023-01-29T14:25:53;48.43;;;24.97;;
23258;SDS011;11798;51.528;7.240;2023-01-29T14:28:20;48.20;;;25.53;;
23258;SDS011;11798;51.528;7.240;2023-01-29T14:30:48;51.80;;;25.40;;
23258;SDS011;11798;51.528;7.240;2023-01-29T14:36:09;46.17;;;23.47;;
23258;SDS011;11798;51.528;7.240;2023-01-29T14:38:37;50.97;;;25.20;;
23258;SDS011;11798;51.528;7.240;2023-01-29T14:41:26;49.93;;;25.53;;
23258;SDS011;11798;51.528;7.240;2023-01-29T14:46:58;44.27;;;22.80;;
23258;SDS011;11798;51.528;7.240;2023-01-29T14:52:13;44.57;;;23.30;;
23258;SDS011;11798;51.528;7.240;2023-01-29T14:54:41;45.50;;;24.47;;
23258;SDS011;11798;51.528;7.240;2023-01-29T14:57:09;46.60;;;24.27;;
23258;SDS011;11798;51.528;7.240;2023-01-29T15:02:29;46.67;;;22.93;;
23258;SDS011;11798;51.528;7.240;2023-01-29T15:05:03;42.33;;;24.33;;
23258;SDS011;11798;51.528;7.240;2023-01-29T15:07:36;44.87;;;23.03;;
23258;SDS011;11798;51.528;7.240;2023-01-29T15:10:19;49.07;;;24.47;;
23258;SDS011;11798;51.528;7.240;2023-01-29T15:21:16;43.67;;;23.30;;
23258;SDS011;11798;51.528;7.240;2023-01-29T15:23:44;48.03;;;24.40;;
23258;SDS011;11798;51.528;7.240;2023-01-29T15:26:19;42.47;;;21.87;;
23258;SDS011;11798;51.528;7.240;2023-01-29T15:29:21;43.40;;;23.17;;
23258;SDS011;11798;51.528;7.240;2023-01-29T15:31:46;46.00;;;23.83;;
23258;SDS011;11798;51.528;7.240;2023-01-29T15:34:11;43.23;;;23.27;;
23258;SDS011;11798;51.528;7.240;2023-01-29T15:36:37;48.97;;;24.73;;
23258;SDS011;11798;51.528;7.240;2023-01-29T15:41:39;49.03;;;24.87;;
23258;SDS011;11798;51.528;7.240;2023-01-29T15:44:11;47.17;;;24.17;;
23258;SDS011;11798;51.528;7.240;2023-01-29T15:46:47;48.00;;;22.20;;
23258;SDS011;11798;51.528;7.240;2023-01-29T15:49:18;45.40;;;23.47;;
23258;SDS011;11798;51.528;7.240;2023-01-29T15:51:56;44.17;;;23.80;;
23258;SDS011;11798;51.528;7.240;2023-01-29T15:54:23;45.93;;;24.43;;
23258;SDS011;11798;51.528;7.240;2023-01-29T15:56:51;46.20;;;23.93;;
23258;SDS011;11798;51.528;7.240;2023-01-29T15:59:19;46.20;;;24.30;;
23258;SDS011;11798;51.528;7.240;2023-01-29T16:01:51;45.77;;;23.43;;
23258;SDS011;11798;51.528;7.240;2023-01-29T16:04:19;49.07;;;25.17;;
23258;SDS011;11798;51.528;7.240;2023-01-29T16:06:50;43.67;;;24.10;;
23258;SDS011;11798;51.528;7.240;2023-01-29T16:09:18;47.03;;;24.13;;
23258;SDS011;11798;51.528;7.240;2023-01-29T16:11:47;46.07;;;23.97;;
23258;SDS011;11798;51.528;7.240;2023-01-29T16:14:14;44.17;;;23.53;;
23258;SDS011;11798;51.528;7.240;2023-01-29T16:16:43;49.53;;;24.20;;
23258;SDS011;11798;51.528;7.240;2023-01-29T16:19:30;48.77;;;25.40;;
23258;SDS011;11798;51.528;7.240;2023-01-29T16:21:59;46.87;;;23.60;;
23258;SDS011;11798;51.528;7.240;2023-01-29T16:24:27;46.73;;;23.77;;
23258;SDS011;11798;51.528;7.240;2023-01-29T16:26:58;47.93;;;23.77;;
23258;SDS011;11798;51.528;7.240;2023-01-29T16:29:30;49.90;;;24.63;;
23258;SDS011;11798;51.528;7.240;2023-01-29T16:31:58;46.80;;;24.50;;
23258;SDS011;11798;51.528;7.240;2023-01-29T16:36:57;47.53;;;24.43;;
23258;SDS011;11798;51.528;7.240;2023-01-29T16:39:27;42.17;;;22.77;;
23258;SDS011;11798;51.528;7.240;2023-01-29T16:42:18;45.43;;;22.70;;
23258;SDS011;11798;51.528;7.240;2023-01-29T16:45:02;48.30;;;23.83;;
23258;SDS011;11798;51.528;7.240;2023-01-29T16:47:39;43.80;;;22.80;;
23258;SDS011;11798;51.528;7.240;2023-01-29T16:53:10;47.63;;;24.87;;
23258;SDS011;11798;51.528;7.240;2023-01-29T16:55:38;53.43;;;23.87;;
23258;SDS011;11798;51.528;7.240;2023-01-29T16:58:11;44.57;;;23.33;;
23258;SDS011;11798;51.528;7.240;2023-01-29T17:00:42;45.43;;;24.47;;
23258;SDS011;11798;51.528;7.240;2023-01-29T17:03:14;47.30;;;24.03;;
23258;SDS011;11798;51.528;7.240;2023-01-29T17:05:41;49.27;;;25.13;;
23258;SDS011;11798;51.528;7.240;2023-01-29T17:08:21;45.03;;;24.00;;
23258;SDS011;11798;51.528;7.240;2023-01-29T17:10:57;46.30;;;23.77;;
23258;SDS011;11798;51.528;7.240;2023-01-29T17:13:34;43.93;;;22.60;;
23258;SDS011;11798;51.528;7.240;2023-01-29T17:16:13;45.33;;;23.60;;
23258;SDS011;11798;51.528;7.240;2023-01-29T17:18:44;44.87;;;23.57;;
23258;SDS011;11798;51.528;7.240;2023-01-29T17:21:12;48.17;;;25.90;;
23258;SDS011;11798;51.528;7.240;2023-01-29T17:23:38;49.13;;;24.97;;